sensor_id;sensor_type;location;lat;lon;timestamp;pressure;altitude;pressure_sealevel;temperature
60949;BMP280;46729;43.010;24.320;2022-07-06T00:02:16;97136.13;;;21.51
60949;BMP280;46729;43.010;24.320;2022-07-06T00:04:41;97128.81;;;21.01
60949;BMP280;46729;43.010;24.320;2022-07-06T00:07:08;97118.91;;;20.97
60949;BMP280;46729;43.010;24.320;2022-07-06T00:09:35;97112.50;;;21.34
60949;BMP280;46729;43.010;24.320;2022-07-06T00:12:02;97116.41;;;21.62
60949;BMP280;46729;43.010;24.320;2022-07-06T00:14:29;97113.09;;;21.40
60949;BMP280;46729;43.010;24.320;2022-07-06T00:16:55;97106.56;;;21.27
60949;BMP280;46729;43.010;24.320;2022-07-06T00:19:21;97103.06;;;21.21
60949;BMP280;46729;43.010;24.320;2022-07-06T00:21:48;97092.72;;;21.35
60949;BMP280;46729;43.010;24.320;2022-07-06T00:24:14;97097.88;;;21.41
60949;BMP280;46729;43.010;24.320;2022-07-06T00:26:44;97089.47;;;21.28
60949;BMP280;46729;43.010;24.320;2022-07-06T00:29:10;97087.97;;;21.41
60949;BMP280;46729;43.010;24.320;2022-07-06T00:31:36;97091.47;;;21.06
60949;BMP280;46729;43.010;24.320;2022-07-06T00:34:01;97085.28;;;20.70
60949;BMP280;46729;43.010;24.320;2022-07-06T00:36:27;97083.13;;;20.67
60949;BMP280;46729;43.010;24.320;2022-07-06T00:38:54;97078.09;;;21.06
60949;BMP280;46729;43.010;24.320;2022-07-06T00:41:20;97066.69;;;20.80
60949;BMP280;46729;43.010;24.320;2022-07-06T00:43:52;97063.03;;;20.60
60949;BMP280;46729;43.010;24.320;2022-07-06T00:46:18;97059.94;;;20.42
60949;BMP280;46729;43.010;24.320;2022-07-06T00:48:44;97050.63;;;20.44
60949;BMP280;46729;43.010;24.320;2022-07-06T00:51:10;97054.31;;;20.39
60949;BMP280;46729;43.010;24.320;2022-07-06T00:53:37;97049.69;;;20.34
60949;BMP280;46729;43.010;24.320;2022-07-06T00:56:04;97040.50;;;20.21
60949;BMP280;46729;43.010;24.320;2022-07-06T00:58:29;97036.75;;;20.22
60949;BMP280;46729;43.010;24.320;2022-07-06T01:00:55;97026.63;;;20.23
60949;BMP280;46729;43.010;24.320;2022-07-06T01:03:20;97026.84;;;20.17
60949;BMP280;46729;43.010;24.320;2022-07-06T01:05:46;97023.13;;;20.18
60949;BMP280;46729;43.010;24.320;2022-07-06T01:08:13;97015.44;;;20.26
60949;BMP280;46729;43.010;24.320;2022-07-06T01:10:40;97003.03;;;20.37
60949;BMP280;46729;43.010;24.320;2022-07-06T01:13:06;97015.78;;;20.04
60949;BMP280;46729;43.010;24.320;2022-07-06T01:15:31;97003.63;;;20.18
60949;BMP280;46729;43.010;24.320;2022-07-06T01:17:57;97008.88;;;20.08
60949;BMP280;46729;43.010;24.320;2022-07-06T01:20:25;96997.00;;;20.20
60949;BMP280;46729;43.010;24.320;2022-07-06T01:22:52;97004.69;;;20.42
60949;BMP280;46729;43.010;24.320;2022-07-06T01:25:20;96998.38;;;20.53
60949;BMP280;46729;43.010;24.320;2022-07-06T01:27:47;96986.81;;;20.79
60949;BMP280;46729;43.010;24.320;2022-07-06T01:30:18;96986.88;;;20.88
60949;BMP280;46729;43.010;24.320;2022-07-06T01:32:44;96997.25;;;20.80
60949;BMP280;46729;43.010;24.320;2022-07-06T01:35:12;96989.72;;;20.77
60949;BMP280;46729;43.010;24.320;2022-07-06T01:37:38;96994.66;;;20.95
60949;BMP280;46729;43.010;24.320;2022-07-06T01:40:06;97007.78;;;21.01
60949;BMP280;46729;43.010;24.320;2022-07-06T01:42:34;97016.47;;;20.82
60949;BMP280;46729;43.010;24.320;2022-07-06T01:45:18;97034.09;;;20.83
60949;BMP280;46729;43.010;24.320;2022-07-06T01:47:44;97033.34;;;20.87
60949;BMP280;46729;43.010;24.320;2022-07-06T01:50:09;97034.16;;;20.88
60949;BMP280;46729;43.010;24.320;2022-07-06T01:52:35;97041.91;;;20.89
60949;BMP280;46729;43.010;24.320;2022-07-06T01:55:01;97047.56;;;20.98
60949;BMP280;46729;43.010;24.320;2022-07-06T01:57:27;97051.31;;;21.01
60949;BMP280;46729;43.010;24.320;2022-07-06T01:59:53;97046.47;;;20.94
60949;BMP280;46729;43.010;24.320;2022-07-06T02:02:18;97056.66;;;21.01
60949;BMP280;46729;43.010;24.320;2022-07-06T02:04:44;97067.41;;;21.06
60949;BMP280;46729;43.010;24.320;2022-07-06T02:07:10;97069.81;;;21.08
60949;BMP280;46729;43.010;24.320;2022-07-06T02:09:35;97068.75;;;21.09
60949;BMP280;46729;43.010;24.320;2022-07-06T02:12:01;97076.69;;;20.99
60949;BMP280;46729;43.010;24.320;2022-07-06T02:14:27;97083.84;;;20.89
60949;BMP280;46729;43.010;24.320;2022-07-06T02:16:54;97084.59;;;20.84
60949;BMP280;46729;43.010;24.320;2022-07-06T02:19:21;97097.88;;;20.75
60949;BMP280;46729;43.010;24.320;2022-07-06T02:21:48;97097.19;;;20.89
60949;BMP280;46729;43.010;24.320;2022-07-06T02:24:15;97097.47;;;20.92
60949;BMP280;46729;43.010;24.320;2022-07-06T02:26:42;97099.09;;;20.62
60949;BMP280;46729;43.010;24.320;2022-07-06T02:29:08;97112.31;;;20.27
60949;BMP280;46729;43.010;24.320;2022-07-06T02:31:34;97109.78;;;20.62
60949;BMP280;46729;43.010;24.320;2022-07-06T02:34:01;97107.47;;;20.71
60949;BMP280;46729;43.010;24.320;2022-07-06T02:36:26;97112.03;;;20.75
60949;BMP280;46729;43.010;24.320;2022-07-06T02:38:52;97120.63;;;20.82
60949;BMP280;46729;43.010;24.320;2022-07-06T02:41:17;97117.53;;;20.95
60949;BMP280;46729;43.010;24.320;2022-07-06T02:43:43;97119.72;;;20.98
60949;BMP280;46729;43.010;24.320;2022-07-06T02:46:09;97121.84;;;21.00
60949;BMP280;46729;43.010;24.320;2022-07-06T02:48:34;97124.19;;;20.92
60949;BMP280;46729;43.010;24.320;2022-07-06T02:51:00;97119.72;;;20.98
60949;BMP280;46729;43.010;24.320;2022-07-06T02:53:26;97126.53;;;20.84
60949;BMP280;46729;43.010;24.320;2022-07-06T02:55:53;97135.50;;;20.73
60949;BMP280;46729;43.010;24.320;2022-07-06T02:58:18;97140.22;;;20.61
60949;BMP280;46729;43.010;24.320;2022-07-06T03:00:44;97145.19;;;20.32
60949;BMP280;46729;43.010;24.320;2022-07-06T03:03:09;97140.63;;;20.07
60949;BMP280;46729;43.010;24.320;2022-07-06T03:05:36;97146.06;;;20.12
60949;BMP280;46729;43.010;24.320;2022-07-06T03:08:02;97150.06;;;20.14
60949;BMP280;46729;43.010;24.320;2022-07-06T03:10:28;97148.28;;;20.20
60949;BMP280;46729;43.010;24.320;2022-07-06T03:12:54;97143.53;;;20.26
60949;BMP280;46729;43.010;24.320;2022-07-06T03:15:20;97153.56;;;20.36
60949;BMP280;46729;43.010;24.320;2022-07-06T03:17:45;97148.69;;;20.33
60949;BMP280;46729;43.010;24.320;2022-07-06T03:20:12;97147.19;;;20.42
60949;BMP280;46729;43.010;24.320;2022-07-06T03:22:40;97150.22;;;20.50
60949;BMP280;46729;43.010;24.320;2022-07-06T03:25:07;97143.31;;;20.80
60949;BMP280;46729;43.010;24.320;2022-07-06T03:27:34;97139.06;;;20.83
60949;BMP280;46729;43.010;24.320;2022-07-06T03:30:03;97148.75;;;20.89
60949;BMP280;46729;43.010;24.320;2022-07-06T03:32:30;97146.94;;;20.95
60949;BMP280;46729;43.010;24.320;2022-07-06T03:34:58;97138.78;;;21.11
60949;BMP280;46729;43.010;24.320;2022-07-06T03:37:25;97150.50;;;21.10
60949;BMP280;46729;43.010;24.320;2022-07-06T03:39:50;97146.38;;;20.93
60949;BMP280;46729;43.010;24.320;2022-07-06T03:42:17;97148.59;;;20.49
60949;BMP280;46729;43.010;24.320;2022-07-06T03:44:44;97159.97;;;20.61
60949;BMP280;46729;43.010;24.320;2022-07-06T03:47:10;97156.13;;;20.78
60949;BMP280;46729;43.010;24.320;2022-07-06T03:49:35;97151.22;;;20.96
60949;BMP280;46729;43.010;24.320;2022-07-06T03:52:02;97153.53;;;20.87
60949;BMP280;46729;43.010;24.320;2022-07-06T03:54:30;97148.53;;;20.96
60949;BMP280;46729;43.010;24.320;2022-07-06T03:56:57;97147.31;;;20.77
60949;BMP280;46729;43.010;24.320;2022-07-06T03:59:24;97141.97;;;20.77
60949;BMP280;46729;43.010;24.320;2022-07-06T04:01:50;97146.81;;;20.80
60949;BMP280;46729;43.010;24.320;2022-07-06T04:04:18;97141.75;;;20.83
60949;BMP280;46729;43.010;24.320;2022-07-06T04:06:44;97139.19;;;20.67
60949;BMP280;46729;43.010;24.320;2022-07-06T04:09:11;97140.31;;;20.71
60949;BMP280;46729;43.010;24.320;2022-07-06T04:11:38;97132.06;;;20.73
60949;BMP280;46729;43.010;24.320;2022-07-06T04:14:05;97135.31;;;20.80
60949;BMP280;46729;43.010;24.320;2022-07-06T04:16:32;97143.25;;;20.75
60949;BMP280;46729;43.010;24.320;2022-07-06T04:18:59;97140.91;;;20.78
60949;BMP280;46729;43.010;24.320;2022-07-06T04:21:26;97148.53;;;20.96
60949;BMP280;46729;43.010;24.320;2022-07-06T04:23:51;97144.69;;;21.13
60949;BMP280;46729;43.010;24.320;2022-07-06T04:26:23;97151.69;;;21.18
60949;BMP280;46729;43.010;24.320;2022-07-06T04:28:50;97149.06;;;21.23
60949;BMP280;46729;43.010;24.320;2022-07-06T04:31:15;97145.59;;;21.23
60949;BMP280;46729;43.010;24.320;2022-07-06T04:33:42;97156.81;;;21.25
60949;BMP280;46729;43.010;24.320;2022-07-06T04:36:11;97151.00;;;21.33
60949;BMP280;46729;43.010;24.320;2022-07-06T04:38:38;97145.44;;;21.44
60949;BMP280;46729;43.010;24.320;2022-07-06T04:41:04;97149.00;;;21.54
60949;BMP280;46729;43.010;24.320;2022-07-06T04:43:29;97144.97;;;21.52
60949;BMP280;46729;43.010;24.320;2022-07-06T04:45:56;97156.41;;;21.42
60949;BMP280;46729;43.010;24.320;2022-07-06T04:48:22;97149.75;;;21.45
60949;BMP280;46729;43.010;24.320;2022-07-06T04:50:49;97150.47;;;21.31
60949;BMP280;46729;43.010;24.320;2022-07-06T04:53:16;97143.91;;;21.53
60949;BMP280;46729;43.010;24.320;2022-07-06T04:55:43;97141.72;;;21.45
60949;BMP280;46729;43.010;24.320;2022-07-06T04:58:10;97137.97;;;21.41
60949;BMP280;46729;43.010;24.320;2022-07-06T05:00:38;97134.41;;;21.31
60949;BMP280;46729;43.010;24.320;2022-07-06T05:03:04;97143.56;;;21.39
60949;BMP280;46729;43.010;24.320;2022-07-06T05:05:32;97151.13;;;21.52
60949;BMP280;46729;43.010;24.320;2022-07-06T05:07:59;97147.00;;;21.76
60949;BMP280;46729;43.010;24.320;2022-07-06T05:10:26;97144.72;;;21.98
60949;BMP280;46729;43.010;24.320;2022-07-06T05:12:54;97146.44;;;22.19
60949;BMP280;46729;43.010;24.320;2022-07-06T05:15:22;97143.50;;;22.30
60949;BMP280;46729;43.010;24.320;2022-07-06T05:17:49;97146.47;;;22.38
60949;BMP280;46729;43.010;24.320;2022-07-06T05:20:14;97154.00;;;22.41
60949;BMP280;46729;43.010;24.320;2022-07-06T05:22:41;97152.16;;;22.52
60949;BMP280;46729;43.010;24.320;2022-07-06T05:25:08;97154.59;;;22.63
60949;BMP280;46729;43.010;24.320;2022-07-06T05:27:35;97150.59;;;22.65
60949;BMP280;46729;43.010;24.320;2022-07-06T05:30:02;97142.06;;;22.78
60949;BMP280;46729;43.010;24.320;2022-07-06T05:32:28;97143.41;;;22.85
60949;BMP280;46729;43.010;24.320;2022-07-06T05:34:53;97152.78;;;22.88
60949;BMP280;46729;43.010;24.320;2022-07-06T05:37:20;97156.00;;;22.99
60949;BMP280;46729;43.010;24.320;2022-07-06T05:39:45;97150.09;;;23.12
60949;BMP280;46729;43.010;24.320;2022-07-06T05:42:13;97162.97;;;23.10
60949;BMP280;46729;43.010;24.320;2022-07-06T05:44:40;97152.50;;;23.09
60949;BMP280;46729;43.010;24.320;2022-07-06T05:47:05;97154.09;;;23.14
60949;BMP280;46729;43.010;24.320;2022-07-06T05:49:50;97159.75;;;23.13
60949;BMP280;46729;43.010;24.320;2022-07-06T05:52:35;97161.38;;;23.19
60949;BMP280;46729;43.010;24.320;2022-07-06T05:55:01;97159.22;;;23.11
60949;BMP280;46729;43.010;24.320;2022-07-06T05:57:28;97160.28;;;23.15
60949;BMP280;46729;43.010;24.320;2022-07-06T05:59:55;97158.69;;;23.04
60949;BMP280;46729;43.010;24.320;2022-07-06T06:02:22;97162.97;;;23.00
60949;BMP280;46729;43.010;24.320;2022-07-06T06:04:48;97165.34;;;22.97
60949;BMP280;46729;43.010;24.320;2022-07-06T06:07:15;97164.31;;;22.93
60949;BMP280;46729;43.010;24.320;2022-07-06T06:09:42;97158.13;;;22.83
60949;BMP280;46729;43.010;24.320;2022-07-06T06:12:08;97163.47;;;22.83
60949;BMP280;46729;43.010;24.320;2022-07-06T06:14:33;97165.63;;;22.86
60949;BMP280;46729;43.010;24.320;2022-07-06T06:16:59;97175.28;;;22.91
60949;BMP280;46729;43.010;24.320;2022-07-06T06:19:25;97173.69;;;22.95
60949;BMP280;46729;43.010;24.320;2022-07-06T06:21:50;97172.34;;;22.93
60949;BMP280;46729;43.010;24.320;2022-07-06T06:24:17;97166.16;;;22.92
60949;BMP280;46729;43.010;24.320;2022-07-06T06:26:44;97166.16;;;22.92
60949;BMP280;46729;43.010;24.320;2022-07-06T06:29:10;97164.59;;;22.96
60949;BMP280;46729;43.010;24.320;2022-07-06T06:31:36;97168.56;;;22.89
60949;BMP280;46729;43.010;24.320;2022-07-06T06:34:02;97163.75;;;22.91
60949;BMP280;46729;43.010;24.320;2022-07-06T06:36:27;97168.31;;;22.91
60949;BMP280;46729;43.010;24.320;2022-07-06T06:38:53;97168.03;;;22.92
60949;BMP280;46729;43.010;24.320;2022-07-06T06:41:18;97177.69;;;22.93
60949;BMP280;46729;43.010;24.320;2022-07-06T06:43:46;97177.69;;;22.98
60949;BMP280;46729;43.010;24.320;2022-07-06T06:46:11;97175.56;;;23.05
60949;BMP280;46729;43.010;24.320;2022-07-06T06:48:38;97176.91;;;23.12
60949;BMP280;46729;43.010;24.320;2022-07-06T06:51:05;97167.50;;;23.14
60949;BMP280;46729;43.010;24.320;2022-07-06T06:53:32;97166.19;;;23.31
60949;BMP280;46729;43.010;24.320;2022-07-06T06:55:57;97167.56;;;23.39
60949;BMP280;46729;43.010;24.320;2022-07-06T06:58:24;97161.38;;;23.48
60949;BMP280;46729;43.010;24.320;2022-07-06T07:00:51;97167.56;;;23.29
60949;BMP280;46729;43.010;24.320;2022-07-06T07:03:18;97152.25;;;23.44
60949;BMP280;46729;43.010;24.320;2022-07-06T07:05:43;97158.16;;;23.51
60949;BMP280;46729;43.010;24.320;2022-07-06T07:08:09;97159.75;;;23.57
60949;BMP280;46729;43.010;24.320;2022-07-06T07:10:35;97150.09;;;23.17
60949;BMP280;46729;43.010;24.320;2022-07-06T07:13:02;97154.69;;;23.31
60949;BMP280;46729;43.010;24.320;2022-07-06T07:15:29;97154.41;;;23.37
60949;BMP280;46729;43.010;24.320;2022-07-06T07:17:56;97147.97;;;23.48
60949;BMP280;46729;43.010;24.320;2022-07-06T07:20:23;97156.03;;;23.48
60949;BMP280;46729;43.010;24.320;2022-07-06T07:22:48;97152.25;;;23.49
60949;BMP280;46729;43.010;24.320;2022-07-06T07:25:14;97149.47;;;23.83
60949;BMP280;46729;43.010;24.320;2022-07-06T07:27:39;97147.25;;;24.19
60949;BMP280;46729;43.010;24.320;2022-07-06T07:30:07;97140.97;;;24.38
60949;BMP280;46729;43.010;24.320;2022-07-06T07:32:33;97149.34;;;24.27
60949;BMP280;46729;43.010;24.320;2022-07-06T07:34:58;97170.44;;;23.96
60949;BMP280;46729;43.010;24.320;2022-07-06T07:37:29;97165.31;;;23.85
60949;BMP280;46729;43.010;24.320;2022-07-06T07:39:57;97148.16;;;23.81
60949;BMP280;46729;43.010;24.320;2022-07-06T07:42:25;97169.69;;;23.56
60949;BMP280;46729;43.010;24.320;2022-07-06T07:44:52;97162.44;;;23.62
60949;BMP280;46729;43.010;24.320;2022-07-06T07:47:19;97157.06;;;23.52
60949;BMP280;46729;43.010;24.320;2022-07-06T07:49:46;97170.75;;;23.50
60949;BMP280;46729;43.010;24.320;2022-07-06T07:52:12;97159.22;;;23.55
60949;BMP280;46729;43.010;24.320;2022-07-06T07:54:40;97164.31;;;23.27
60949;BMP280;46729;43.010;24.320;2022-07-06T07:57:07;97176.94;;;23.36
60949;BMP280;46729;43.010;24.320;2022-07-06T07:59:32;97169.91;;;23.06
60949;BMP280;46729;43.010;24.320;2022-07-06T08:02:00;97170.78;;;23.31
60949;BMP280;46729;43.010;24.320;2022-07-06T08:04:26;97160.59;;;23.38
60949;BMP280;46729;43.010;24.320;2022-07-06T08:06:53;97161.88;;;23.60
60949;BMP280;46729;43.010;24.320;2022-07-06T08:09:20;97167.50;;;23.68
60949;BMP280;46729;43.010;24.320;2022-07-06T08:11:47;97169.63;;;23.90
60949;BMP280;46729;43.010;24.320;2022-07-06T08:14:14;97166.03;;;24.24
60949;BMP280;46729;43.010;24.320;2022-07-06T08:16:40;97159.28;;;24.31
60949;BMP280;46729;43.010;24.320;2022-07-06T08:19:08;97160.66;;;24.19
60949;BMP280;46729;43.010;24.320;2022-07-06T08:21:36;97173.63;;;24.03
60949;BMP280;46729;43.010;24.320;2022-07-06T08:24:02;97175.78;;;23.96
60949;BMP280;46729;43.010;24.320;2022-07-06T08:26:29;97173.13;;;23.71
60949;BMP280;46729;43.010;24.320;2022-07-06T08:28:58;97170.47;;;23.71
60949;BMP280;46729;43.010;24.320;2022-07-06T08:31:26;97179.09;;;23.44
60949;BMP280;46729;43.010;24.320;2022-07-06T08:33:54;97180.69;;;23.45
60949;BMP280;46729;43.010;24.320;2022-07-06T08:36:22;97175.03;;;23.27
60949;BMP280;46729;43.010;24.320;2022-07-06T08:38:50;97175.31;;;23.45
60949;BMP280;46729;43.010;24.320;2022-07-06T08:41:17;97188.47;;;23.42
60949;BMP280;46729;43.010;24.320;2022-07-06T08:43:46;97178.81;;;23.46
60949;BMP280;46729;43.010;24.320;2022-07-06T08:46:13;97181.47;;;23.60
60949;BMP280;46729;43.010;24.320;2022-07-06T08:48:41;97168.88;;;23.66
60949;BMP280;46729;43.010;24.320;2022-07-06T08:51:08;97177.47;;;23.53
60949;BMP280;46729;43.010;24.320;2022-07-06T08:53:35;97182.03;;;23.38
60949;BMP280;46729;43.010;24.320;2022-07-06T08:56:01;97178.53;;;23.42
60949;BMP280;46729;43.010;24.320;2022-07-06T08:58:27;97178.00;;;23.55
60949;BMP280;46729;43.010;24.320;2022-07-06T09:00:59;97184.41;;;23.59
60949;BMP280;46729;43.010;24.320;2022-07-06T09:03:27;97182.25;;;23.75
60949;BMP280;46729;43.010;24.320;2022-07-06T09:05:59;97178.75;;;23.89
60949;BMP280;46729;43.010;24.320;2022-07-06T09:08:31;97173.91;;;23.96
60949;BMP280;46729;43.010;24.320;2022-07-06T09:10:58;97173.63;;;24.07
60949;BMP280;46729;43.010;24.320;2022-07-06T09:13:25;97173.09;;;24.06
60949;BMP280;46729;43.010;24.320;2022-07-06T09:15:51;97171.50;;;24.00
60949;BMP280;46729;43.010;24.320;2022-07-06T09:18:16;97182.22;;;23.90
60949;BMP280;46729;43.010;24.320;2022-07-06T09:20:43;97173.63;;;23.88
60949;BMP280;46729;43.010;24.320;2022-07-06T09:23:15;97181.16;;;23.86
60949;BMP280;46729;43.010;24.320;2022-07-06T09:25:41;97181.69;;;23.88
60949;BMP280;46729;43.010;24.320;2022-07-06T09:28:08;97188.41;;;23.90
60949;BMP280;46729;43.010;24.320;2022-07-06T09:30:34;97176.28;;;23.93
60949;BMP280;46729;43.010;24.320;2022-07-06T09:33:07;97190.28;;;24.00
60949;BMP280;46729;43.010;24.320;2022-07-06T09:35:38;97183.31;;;23.99
60949;BMP280;46729;43.010;24.320;2022-07-06T09:38:10;97183.84;;;23.96
60949;BMP280;46729;43.010;24.320;2022-07-06T09:40:38;97179.25;;;24.06
60949;BMP280;46729;43.010;24.320;2022-07-06T09:43:19;97175.75;;;24.06
60949;BMP280;46729;43.010;24.320;2022-07-06T09:45:53;97170.38;;;24.10
60949;BMP280;46729;43.010;24.320;2022-07-06T09:48:27;97172.53;;;24.08
60949;BMP280;46729;43.010;24.320;2022-07-06T09:51:03;97169.59;;;24.05
60949;BMP280;46729;43.010;24.320;2022-07-06T09:53:30;97177.13;;;23.98
60949;BMP280;46729;43.010;24.320;2022-07-06T09:55:56;97168.00;;;23.85
60949;BMP280;46729;43.010;24.320;2022-07-06T09:58:25;97157.53;;;23.83
60949;BMP280;46729;43.010;24.320;2022-07-06T10:00:51;97161.31;;;23.82
60949;BMP280;46729;43.010;24.320;2022-07-06T10:03:19;97163.19;;;23.91
60949;BMP280;46729;43.010;24.320;2022-07-06T10:05:47;97165.31;;;23.85
60949;BMP280;46729;43.010;24.320;2022-07-06T10:08:16;97167.75;;;23.76
60949;BMP280;46729;43.010;24.320;2022-07-06T10:10:44;97160.81;;;23.61
60949;BMP280;46729;43.010;24.320;2022-07-06T10:13:19;97161.13;;;23.45
60949;BMP280;46729;43.010;24.320;2022-07-06T10:15:46;97151.72;;;23.32
60949;BMP280;46729;43.010;24.320;2022-07-06T10:18:14;97148.75;;;23.63
60949;BMP280;46729;43.010;24.320;2022-07-06T10:20:41;97143.47;;;24.25
60949;BMP280;46729;43.010;24.320;2022-07-06T10:23:08;97141.69;;;24.58
60949;BMP280;46729;43.010;24.320;2022-07-06T10:25:35;97120.94;;;25.39
60949;BMP280;46729;43.010;24.320;2022-07-06T10:28:03;97114.38;;;26.00
60949;BMP280;46729;43.010;24.320;2022-07-06T10:30:29;97120.00;;;26.03
60949;BMP280;46729;43.010;24.320;2022-07-06T10:32:59;97124.78;;;25.88
60949;BMP280;46729;43.010;24.320;2022-07-06T10:35:25;97119.78;;;25.72
60949;BMP280;46729;43.010;24.320;2022-07-06T10:38:05;97122.44;;;25.77
60949;BMP280;46729;43.010;24.320;2022-07-06T10:40:38;97124.31;;;25.54
60949;BMP280;46729;43.010;24.320;2022-07-06T10:43:22;97112.47;;;25.55
60949;BMP280;46729;43.010;24.320;2022-07-06T10:45:52;97103.16;;;25.70
60949;BMP280;46729;43.010;24.320;2022-07-06T10:48:19;97115.22;;;25.73
60949;BMP280;46729;43.010;24.320;2022-07-06T10:50:54;97107.94;;;25.73
60949;BMP280;46729;43.010;24.320;2022-07-06T10:53:31;97136.19;;;25.48
60949;BMP280;46729;43.010;24.320;2022-07-06T10:56:03;97134.03;;;24.84
60949;BMP280;46729;43.010;24.320;2022-07-06T10:58:47;97138.97;;;24.11
60949;BMP280;46729;43.010;24.320;2022-07-06T11:01:15;97157.50;;;24.07
60949;BMP280;46729;43.010;24.320;2022-07-06T11:03:47;97171.53;;;23.70
60949;BMP280;46729;43.010;24.320;2022-07-06T11:06:21;97173.44;;;23.55
60949;BMP280;46729;43.010;24.320;2022-07-06T11:09:09;97167.25;;;23.26
60949;BMP280;46729;43.010;24.320;2022-07-06T11:11:41;97175.84;;;23.18
60949;BMP280;46729;43.010;24.320;2022-07-06T11:14:17;97177.69;;;23.08
60949;BMP280;46729;43.010;24.320;2022-07-06T11:19:22;97180.13;;;23.14
60949;BMP280;46729;43.010;24.320;2022-07-06T11:21:52;97178.78;;;23.26
60949;BMP280;46729;43.010;24.320;2022-07-06T11:24:22;97174.25;;;23.31
60949;BMP280;46729;43.010;24.320;2022-07-06T11:26:50;97161.63;;;23.42
60949;BMP280;46729;43.010;24.320;2022-07-06T11:29:19;97163.53;;;23.56
60949;BMP280;46729;43.010;24.320;2022-07-06T11:31:51;97165.63;;;23.68
60949;BMP280;46729;43.010;24.320;2022-07-06T11:34:32;97151.66;;;23.67
60949;BMP280;46729;43.010;24.320;2022-07-06T11:37:00;97158.91;;;23.71
60949;BMP280;46729;43.010;24.320;2022-07-06T11:39:27;97156.47;;;23.74
60949;BMP280;46729;43.010;24.320;2022-07-06T11:41:54;97157.34;;;23.41
60949;BMP280;46729;43.010;24.320;2022-07-06T11:44:21;97151.16;;;23.50
60949;BMP280;46729;43.010;24.320;2022-07-06T11:46:47;97149.00;;;23.71
60949;BMP280;46729;43.010;24.320;2022-07-06T11:49:15;97149.03;;;23.52
60949;BMP280;46729;43.010;24.320;2022-07-06T11:51:44;97148.16;;;23.86
60949;BMP280;46729;43.010;24.320;2022-07-06T11:54:12;97141.97;;;23.90
60949;BMP280;46729;43.010;24.320;2022-07-06T11:59:17;97138.38;;;24.24
60949;BMP280;46729;43.010;24.320;2022-07-06T12:01:46;97131.47;;;24.60
60949;BMP280;46729;43.010;24.320;2022-07-06T12:04:13;97124.88;;;24.85
60949;BMP280;46729;43.010;24.320;2022-07-06T12:06:39;97124.41;;;24.74
60949;BMP280;46729;43.010;24.320;2022-07-06T12:09:05;97115.41;;;24.93
60949;BMP280;46729;43.010;24.320;2022-07-06T12:11:34;97115.41;;;24.93
60949;BMP280;46729;43.010;24.320;2022-07-06T12:14:02;97116.69;;;25.00
60949;BMP280;46729;43.010;24.320;2022-07-06T12:16:35;97112.03;;;25.10
60949;BMP280;46729;43.010;24.320;2022-07-06T12:19:03;97111.16;;;25.20
60949;BMP280;46729;43.010;24.320;2022-07-06T12:21:30;97109.75;;;25.22
60949;BMP280;46729;43.010;24.320;2022-07-06T12:23:56;97102.97;;;25.34
60949;BMP280;46729;43.010;24.320;2022-07-06T12:26:23;97110.50;;;25.37
60949;BMP280;46729;43.010;24.320;2022-07-06T12:29:07;97108.56;;;25.65
60949;BMP280;46729;43.010;24.320;2022-07-06T12:31:37;97098.22;;;25.77
60949;BMP280;46729;43.010;24.320;2022-07-06T12:34:04;97098.25;;;25.72
60949;BMP280;46729;43.010;24.320;2022-07-06T12:36:31;97095.72;;;25.58
60949;BMP280;46729;43.010;24.320;2022-07-06T12:38:57;97091.16;;;25.58
60949;BMP280;46729;43.010;24.320;2022-07-06T12:41:33;97088.00;;;25.51
60949;BMP280;46729;43.010;24.320;2022-07-06T12:44:05;97094.66;;;25.59
60949;BMP280;46729;43.010;24.320;2022-07-06T12:46:35;97089.63;;;25.47
60949;BMP280;46729;43.010;24.320;2022-07-06T12:49:23;97082.53;;;25.61
60949;BMP280;46729;43.010;24.320;2022-07-06T12:52:09;97086.41;;;25.73
60949;BMP280;46729;43.010;24.320;2022-07-06T12:54:49;97066.47;;;25.74
60949;BMP280;46729;43.010;24.320;2022-07-06T12:57:21;97063.16;;;25.82
60949;BMP280;46729;43.010;24.320;2022-07-06T12:59:57;97065.78;;;25.87
60949;BMP280;46729;43.010;24.320;2022-07-06T13:02:29;97055.59;;;26.07
60949;BMP280;46729;43.010;24.320;2022-07-06T13:05:01;97059.72;;;26.22
60949;BMP280;46729;43.010;24.320;2022-07-06T13:07:31;97056.84;;;26.55
60949;BMP280;46729;43.010;24.320;2022-07-06T13:09:58;97050.50;;;26.95
60949;BMP280;46729;43.010;24.320;2022-07-06T13:12:25;97046.22;;;26.76
60949;BMP280;46729;43.010;24.320;2022-07-06T13:14:52;97044.34;;;26.59
60949;BMP280;46729;43.010;24.320;2022-07-06T13:17:19;97038.31;;;26.31
60949;BMP280;46729;43.010;24.320;2022-07-06T13:19:45;97047.22;;;26.08
60949;BMP280;46729;43.010;24.320;2022-07-06T13:22:11;97044.22;;;25.92
60949;BMP280;46729;43.010;24.320;2022-07-06T13:24:37;97040.31;;;25.79
60949;BMP280;46729;43.010;24.320;2022-07-06T13:27:03;97043.75;;;25.62
60949;BMP280;46729;43.010;24.320;2022-07-06T13:29:30;97047.81;;;25.60
60949;BMP280;46729;43.010;24.320;2022-07-06T13:31:56;97062.16;;;25.27
60949;BMP280;46729;43.010;24.320;2022-07-06T13:34:21;97065.44;;;25.20
60949;BMP280;46729;43.010;24.320;2022-07-06T13:36:47;97056.31;;;25.16
60949;BMP280;46729;43.010;24.320;2022-07-06T13:39:13;97050.31;;;25.23
60949;BMP280;46729;43.010;24.320;2022-07-06T13:41:40;97047.50;;;25.10
60949;BMP280;46729;43.010;24.320;2022-07-06T13:44:05;97054.72;;;25.15
60949;BMP280;46729;43.010;24.320;2022-07-06T13:46:34;97043.91;;;24.92
60949;BMP280;46729;43.010;24.320;2022-07-06T13:49:00;97048.34;;;25.06
60949;BMP280;46729;43.010;24.320;2022-07-06T13:51:27;97040.25;;;25.11
60949;BMP280;46729;43.010;24.320;2022-07-06T13:53:55;97044.94;;;24.63
60949;BMP280;46729;43.010;24.320;2022-07-06T13:56:20;97042.38;;;24.81
60949;BMP280;46729;43.010;24.320;2022-07-06T13:58:47;97037.97;;;24.62
60949;BMP280;46729;43.010;24.320;2022-07-06T14:01:14;97040.03;;;24.32
60949;BMP280;46729;43.010;24.320;2022-07-06T14:03:41;97053.47;;;24.32
60949;BMP280;46729;43.010;24.320;2022-07-06T14:06:08;97051.47;;;24.05